Time;durP1;ratioP1;P1;durP2;ratioP2;P2;SDS_P1;SDS_P2;PMS_P1;PMS_P2;Temp;Humidity;BMP_temperature;BMP_pressure;BME280_temperature;BME280_humidity;BME280_pressure;Samples;Min_cycle;Max_cycle;Signal;HPM_P1;HPM_P2
2022/01/21 00:01:23;;;;;;;1.13;1.03;;;3.20;79.60;;;;;;5054539;28;20187;-87
2022/01/21 00:03:49;;;;;;;1.60;0.80;;;3.10;80.30;;;;;;5052636;28;20168;-87
2022/01/21 00:06:16;;;;;;;1.20;1.20;;;3.10;80.90;;;;;;5052538;28;20256;-88
2022/01/21 00:08:45;;;;;;;1.20;1.20;;;3.10;80.10;;;;;;5034460;28;20211;-88
2022/01/21 00:11:12;;;;;;;1.40;1.00;;;3.00;80.60;;;;;;5036724;28;20177;-87
2022/01/21 00:13:38;;;;;;;1.37;1.20;;;3.00;81.40;;;;;;5056172;28;20539;-88
2022/01/21 00:16:05;;;;;;;1.23;1.10;;;2.90;81.20;;;;;;5038467;28;20172;-87
2022/01/21 00:18:33;;;;;;;1.10;1.00;;;2.90;81.70;;;;;;5056123;28;20176;-88
2022/01/21 00:31:56;;;;;;;1.00;1.00;;;3.00;83.10;;;;;;5056135;28;20638;-86
2022/01/21 00:34:22;;;;;;;0.93;0.90;;;2.90;83.60;;;;;;5040476;28;20182;-86
2022/01/21 00:36:48;;;;;;;1.00;1.00;;;2.90;83.50;;;;;;5056141;28;20535;-87
2022/01/21 00:39:14;;;;;;;0.80;0.80;;;3.00;83.60;;;;;;5055878;28;20164;-86
2022/01/21 00:41:56;;;;;;;0.93;0.93;;;3.00;83.60;;;;;;5045634;28;20179;-87
2022/01/21 00:44:21;;;;;;;2.20;0.80;;;3.00;83.70;;;;;;5072912;28;20211;-86
2022/01/21 00:46:48;;;;;;;0.97;0.97;;;3.00;83.60;;;;;;5051225;28;20635;-86
2022/01/21 00:49:15;;;;;;;1.17;0.70;;;3.00;83.80;;;;;;5056950;28;20261;-85
2022/01/21 00:51:41;;;;;;;0.80;0.70;;;3.00;83.60;;;;;;5037728;28;20185;-86
2022/01/21 00:54:07;;;;;;;0.70;0.70;;;3.00;81.90;;;;;;5037597;28;20633;-86
2022/01/21 00:56:33;;;;;;;0.90;0.90;;;3.00;82.70;;;;;;5037146;28;20181;-86
2022/01/21 00:58:59;;;;;;;0.77;0.77;;;3.10;82.30;;;;;;5058779;28;20190;-86
2022/01/21 01:01:25;;;;;;;1.40;0.63;;;3.10;81.10;;;;;;5060294;28;20534;-86
2022/01/21 01:03:50;;;;;;;1.57;0.60;;;3.10;79.00;;;;;;5072141;28;20181;-86
2022/01/21 01:06:16;;;;;;;0.60;0.60;;;3.20;78.90;;;;;;5056610;28;20531;-87
2022/01/21 01:08:42;;;;;;;1.23;0.60;;;3.10;78.60;;;;;;5048986;28;20221;-86
2022/01/21 01:21:54;;;;;;;0.70;0.70;;;3.30;75.90;;;;;;5054643;28;20171;-86
2022/01/21 01:29:53;;;;;;;0.50;0.50;;;3.30;76.10;;;;;;5055383;28;20580;-87
2022/01/21 01:32:19;;;;;;;0.60;0.60;;;3.30;75.60;;;;;;5060184;28;20178;-87
2022/01/21 01:34:45;;;;;;;0.70;0.70;;;3.30;75.90;;;;;;5045259;28;20179;-86
2022/01/21 01:37:23;;;;;;;0.53;0.53;;;3.20;76.00;;;;;;5054795;28;20627;-86
2022/01/21 01:39:59;;;;;;;1.50;0.73;;;3.20;76.20;;;;;;5055861;28;20159;-88
2022/01/21 01:42:57;;;;;;;0.83;0.60;;;3.20;76.20;;;;;;5076175;28;20672;-87
2022/01/21 01:53:18;;;;;;;0.70;0.70;;;3.10;76.70;;;;;;5553368;23;20243;-88
2022/01/21 01:55:45;;;;;;;0.60;0.60;;;3.00;76.20;;;;;;5055227;28;20627;-88
2022/01/21 01:58:13;;;;;;;3.50;0.87;;;3.10;74.80;;;;;;5037525;28;20207;-88
2022/01/21 02:00:39;;;;;;;0.60;0.60;;;3.10;75.30;;;;;;5054374;28;20308;-88
2022/01/21 02:03:09;;;;;;;0.53;0.53;;;3.10;76.10;;;;;;5054333;28;20201;-88
2022/01/21 02:05:35;;;;;;;1.20;0.73;;;3.10;76.30;;;;;;5036542;28;20171;-88
2022/01/21 02:08:01;;;;;;;0.90;0.90;;;3.10;75.80;;;;;;5036562;28;20218;-87
2022/01/21 02:10:27;;;;;;;2.07;0.70;;;3.20;76.30;;;;;;5053953;28;20188;-88
2022/01/21 02:13:04;;;;;;;0.77;0.77;;;3.20;75.40;;;;;;5037222;28;20190;-88
2022/01/21 02:15:34;;;;;;;1.93;1.00;;;3.30;74.80;;;;;;5036523;28;20202;-89
2022/01/21 02:23:29;;;;;;;0.80;0.80;;;3.50;74.60;;;;;;5054688;28;20642;-88
2022/01/21 02:25:55;;;;;;;0.80;0.80;;;3.50;76.60;;;;;;5054104;28;20172;-88
2022/01/21 02:28:21;;;;;;;0.70;0.70;;;3.50;75.70;;;;;;5036322;28;20213;-89
2022/01/21 02:30:55;;;;;;;0.97;0.70;;;3.40;74.80;;;;;;5055864;28;20211;-88
2022/01/21 02:33:23;;;;;;;1.33;0.80;;;3.50;75.00;;;;;;5050639;28;20163;-87
2022/01/21 02:35:49;;;;;;;1.10;1.00;;;3.50;75.40;;;;;;5077721;28;20199;-87
2022/01/21 02:38:15;;;;;;;1.17;0.80;;;3.50;75.20;;;;;;5044081;28;20179;-88
2022/01/21 02:40:42;;;;;;;0.70;0.70;;;3.40;75.40;;;;;;5057664;28;20645;-88
2022/01/21 02:43:08;;;;;;;3.23;0.60;;;3.30;75.10;;;;;;5036116;28;20189;-88
2022/01/21 02:45:36;;;;;;;0.60;0.60;;;3.20;75.40;;;;;;5053888;28;20171;-88
2022/01/21 02:48:05;;;;;;;0.60;0.60;;;3.20;76.00;;;;;;5035933;28;20200;-88
2022/01/21 02:50:31;;;;;;;0.60;0.60;;;3.20;76.40;;;;;;5035738;28;20269;-87
2022/01/21 02:53:10;;;;;;;0.57;0.57;;;3.10;76.60;;;;;;5043727;28;20234;-88
2022/01/21 02:55:38;;;;;;;0.70;0.70;;;3.10;77.10;;;;;;5073993;28;20174;-87
2022/01/21 02:58:04;;;;;;;1.87;0.90;;;3.10;77.30;;;;;;5073526;28;20189;-88
2022/01/21 03:00:29;;;;;;;0.67;0.67;;;3.10;77.70;;;;;;5073651;28;20175;-87
2022/01/21 03:02:56;;;;;;;1.60;1.00;;;3.10;77.90;;;;;;5055572;28;20572;-89
2022/01/21 03:05:21;;;;;;;0.60;0.60;;;3.10;77.70;;;;;;5055497;28;20641;-88
2022/01/21 03:07:48;;;;;;;0.80;0.80;;;3.10;77.70;;;;;;5055417;28;20214;-89
2022/01/21 03:10:15;;;;;;;0.90;0.90;;;3.10;78.00;;;;;;5055421;28;20173;-89
2022/01/21 03:12:41;;;;;;;0.43;0.43;;;3.10;78.10;;;;;;5073875;28;20167;-88
2022/01/21 03:15:08;;;;;;;0.93;0.93;;;3.10;78.40;;;;;;5060694;28;20213;-88
2022/01/21 03:17:35;;;;;;;2.30;2.07;;;3.10;79.20;;;;;;5084338;28;20177;-87
2022/01/21 03:20:01;;;;;;;2.90;2.60;;;3.10;80.70;;;;;;5077111;28;20220;-88
2022/01/21 03:22:27;;;;;;;3.20;2.93;;;3.10;81.80;;;;;;5076392;28;20240;-87
2022/01/21 03:24:53;;;;;;;3.90;3.60;;;3.10;82.90;;;;;;5055392;28;20175;-87
2022/01/21 03:27:19;;;;;;;4.20;3.63;;;3.10;83.20;;;;;;5073372;28;20199;-87
2022/01/21 03:29:45;;;;;;;4.23;3.83;;;3.00;83.40;;;;;;5073390;28;20233;-88
2022/01/21 03:32:11;;;;;;;4.17;3.20;;;3.10;83.60;;;;;;5056107;28;20191;-88
2022/01/21 03:34:37;;;;;;;3.03;2.83;;;3.10;83.50;;;;;;5073971;28;20614;-87
2022/01/21 03:37:03;;;;;;;3.40;3.20;;;3.10;83.30;;;;;;5073443;28;20539;-88
2022/01/21 03:39:30;;;;;;;2.17;2.00;;;3.10;83.10;;;;;;5073190;28;20171;-88
2022/01/21 03:41:56;;;;;;;1.70;1.70;;;3.10;81.60;;;;;;5055220;28;20534;-88
2022/01/21 03:44:21;;;;;;;2.03;1.33;;;3.10;81.00;;;;;;5055254;28;20178;-87
2022/01/21 03:46:47;;;;;;;1.60;1.50;;;3.00;80.90;;;;;;5076557;28;20235;-87
2022/01/21 03:49:13;;;;;;;0.90;0.90;;;3.00;80.80;;;;;;5077096;28;20210;-87
2022/01/21 03:51:39;;;;;;;0.90;0.90;;;2.90;81.10;;;;;;5078403;28;20196;-87
2022/01/21 03:54:05;;;;;;;1.50;0.63;;;2.80;82.30;;;;;;5077977;28;20589;-88
2022/01/21 03:56:31;;;;;;;0.70;0.70;;;2.70;85.80;;;;;;5077356;28;20181;-87
2022/01/21 03:58:57;;;;;;;0.53;0.53;;;2.50;90.00;;;;;;5077398;28;20679;-87
2022/01/21 04:01:24;;;;;;;0.80;0.80;;;2.30;91.20;;;;;;5059062;28;20212;-88
2022/01/21 04:03:51;;;;;;;2.90;0.80;;;2.10;92.10;;;;;;5059206;28;20173;-89
2022/01/21 04:06:17;;;;;;;0.87;0.87;;;2.00;92.80;;;;;;5056368;28;20193;-88
2022/01/21 04:08:43;;;;;;;0.80;0.80;;;1.90;93.50;;;;;;5076436;28;20208;-88
2022/01/21 04:11:09;;;;;;;0.90;0.90;;;1.80;93.70;;;;;;5076173;28;20169;-88
2022/01/21 04:13:35;;;;;;;0.60;0.60;;;1.70;94.50;;;;;;5061194;28;20184;-89
2022/01/21 04:16:01;;;;;;;1.00;0.77;;;1.50;95.40;;;;;;5066769;28;20286;-88
2022/01/21 04:18:27;;;;;;;2.73;0.80;;;1.30;96.10;;;;;;5088318;28;20176;-88
2022/01/21 04:20:53;;;;;;;0.70;0.70;;;1.20;96.90;;;;;;5077815;28;20196;-89
2022/01/21 04:23:20;;;;;;;4.17;1.03;;;1.00;96.80;;;;;;5076913;28;20650;-89
2022/01/21 04:25:47;;;;;;;0.90;0.90;;;1.00;97.00;;;;;;5058575;28;20181;-88
2022/01/21 04:28:14;;;;;;;0.80;0.80;;;1.00;97.40;;;;;;5076890;28;20614;-89
2022/01/21 04:30:40;;;;;;;1.20;0.87;;;1.00;97.40;;;;;;5076369;28;20176;-89
2022/01/21 04:33:06;;;;;;;0.97;0.97;;;1.10;97.50;;;;;;5058516;28;20551;-88
2022/01/21 04:35:33;;;;;;;0.87;0.87;;;1.10;97.50;;;;;;5058625;28;20260;-88
2022/01/21 04:38:03;;;;;;;0.80;0.80;;;1.10;97.60;;;;;;5058530;28;20180;-88
2022/01/21 04:40:33;;;;;;;0.90;0.90;;;1.10;97.20;;;;;;5058490;28;20179;-87
2022/01/21 04:48:30;;;;;;;0.77;0.77;;;1.30;94.90;;;;;;5076277;28;20261;-88
2022/01/21 04:50:59;;;;;;;1.00;1.00;;;1.40;95.10;;;;;;5076054;28;20179;-88
2022/01/21 04:53:27;;;;;;;0.90;0.90;;;1.60;94.70;;;;;;5045870;28;20378;-88
2022/01/21 04:55:53;;;;;;;0.90;0.83;;;1.70;94.70;;;;;;5056707;28;20168;-88
2022/01/21 04:58:20;;;;;;;0.70;0.70;;;1.70;93.50;;;;;;5056589;28;20241;-88
2022/01/21 05:00:46;;;;;;;0.80;0.80;;;1.70;92.40;;;;;;5057808;28;20178;-88
2022/01/21 05:03:13;;;;;;;0.67;0.67;;;1.70;92.40;;;;;;5038013;28;20174;-88
2022/01/21 05:05:40;;;;;;;0.70;0.70;;;1.80;91.80;;;;;;5038088;28;20182;-87
2022/01/21 05:08:10;;;;;;;1.30;1.20;;;1.90;91.00;;;;;;5056052;28;20664;-88
2022/01/21 05:10:37;;;;;;;0.57;0.57;;;1.90;90.40;;;;;;5038531;28;20178;-88
2022/01/21 05:13:04;;;;;;;0.57;0.57;;;1.90;90.60;;;;;;5040138;28;20596;-88
2022/01/21 05:15:58;;;;;;;0.87;0.80;;;2.00;90.20;;;;;;5040025;28;20180;-88
2022/01/21 05:18:25;;;;;;;0.70;0.70;;;2.00;90.10;;;;;;5039277;28;20181;-88
2022/01/21 05:20:51;;;;;;;0.80;0.73;;;2.00;89.70;;;;;;5054093;28;20178;-88
2022/01/21 05:23:17;;;;;;;0.70;0.70;;;2.00;89.30;;;;;;5074230;28;20201;-88
2022/01/21 05:25:43;;;;;;;0.70;0.70;;;1.90;90.00;;;;;;5057271;28;20241;-87
2022/01/21 05:28:09;;;;;;;0.67;0.67;;;2.00;88.80;;;;;;5068707;28;20212;-88
2022/01/21 05:30:35;;;;;;;3.33;0.80;;;2.00;88.80;;;;;;5055545;28;20207;-88
2022/01/21 05:33:01;;;;;;;0.53;0.53;;;1.90;87.00;;;;;;5053198;28;20172;-87
2022/01/21 05:35:26;;;;;;;0.80;0.80;;;1.90;84.50;;;;;;5064501;28;20166;-87
2022/01/21 05:37:52;;;;;;;0.70;0.70;;;1.90;84.40;;;;;;5050727;28;20179;-88
2022/01/21 05:40:20;;;;;;;0.93;0.80;;;1.90;84.60;;;;;;5039892;28;20549;-88
2022/01/21 05:42:46;;;;;;;0.80;0.80;;;1.90;83.80;;;;;;5055477;28;20246;-89
2022/01/21 05:47:56;;;;;;;1.00;1.00;;;1.80;82.90;;;;;;5056352;28;20224;-89
2022/01/21 05:50:22;;;;;;;1.60;0.60;;;1.80;82.50;;;;;;5058327;28;20175;-90
2022/01/21 05:52:48;;;;;;;0.80;0.80;;;1.90;80.60;;;;;;5038727;28;20221;-89
2022/01/21 05:55:16;;;;;;;1.70;0.70;;;1.90;80.80;;;;;;5057416;28;20260;-87
2022/01/21 05:57:42;;;;;;;0.90;0.90;;;1.80;80.40;;;;;;5055827;28;20169;-89
2022/01/21 06:00:10;;;;;;;1.03;0.90;;;1.80;78.50;;;;;;5056768;28;20625;-89
2022/01/21 06:02:37;;;;;;;1.97;1.00;;;1.70;77.10;;;;;;5061106;28;20201;-89
2022/01/21 06:05:04;;;;;;;2.93;0.80;;;1.70;77.50;;;;;;5046254;28;20181;-89
2022/01/21 06:07:30;;;;;;;2.00;1.03;;;1.70;77.90;;;;;;5060150;28;20267;-87
2022/01/21 06:09:56;;;;;;;0.80;0.80;;;1.80;76.10;;;;;;5054716;28;20595;-88
2022/01/21 06:12:21;;;;;;;2.00;1.00;;;1.80;75.40;;;;;;5054679;28;20177;-89
2022/01/21 06:14:48;;;;;;;2.50;1.20;;;1.70;74.40;;;;;;5054817;28;20199;-89
2022/01/21 06:17:14;;;;;;;1.30;1.20;;;1.70;75.30;;;;;;5036408;28;20185;-88
2022/01/21 06:19:40;;;;;;;1.13;0.90;;;1.70;75.10;;;;;;5036185;28;20180;-88
2022/01/21 06:22:06;;;;;;;5.07;1.13;;;1.70;74.90;;;;;;5054059;28;20181;-89
2022/01/21 06:24:32;;;;;;;1.43;1.00;;;1.70;74.00;;;;;;5036169;28;20249;-89
2022/01/21 06:27:01;;;;;;;3.13;1.23;;;1.70;74.50;;;;;;5053967;28;20185;-89
2022/01/21 06:29:27;;;;;;;1.63;1.20;;;1.70;74.50;;;;;;5054189;28;20228;-89
2022/01/21 06:31:53;;;;;;;2.83;1.10;;;1.70;74.20;;;;;;5054166;28;20178;-90
2022/01/21 06:34:19;;;;;;;1.03;1.00;;;1.60;73.60;;;;;;5055963;28;20177;-89
2022/01/21 06:36:45;;;;;;;2.50;1.10;;;1.60;74.20;;;;;;5036743;28;20184;-88
2022/01/21 06:39:11;;;;;;;1.00;1.00;;;1.60;74.00;;;;;;5036101;28;20613;-89
2022/01/21 06:41:37;;;;;;;3.23;1.87;;;1.60;74.60;;;;;;5055296;28;20189;-90
2022/01/21 06:44:04;;;;;;;3.33;1.00;;;1.50;74.80;;;;;;5056920;28;20185;-89
2022/01/21 06:46:30;;;;;;;2.20;1.27;;;1.50;75.30;;;;;;5036349;28;20192;-88
2022/01/21 06:48:56;;;;;;;3.20;1.30;;;1.50;75.40;;;;;;5057582;28;20201;-88
2022/01/21 06:51:22;;;;;;;1.40;1.17;;;1.50;75.40;;;;;;5057482;28;20184;-89
2022/01/21 06:53:48;;;;;;;6.13;1.37;;;1.50;75.50;;;;;;5069471;28;20632;-88
2022/01/21 06:56:14;;;;;;;1.00;0.97;;;1.50;75.30;;;;;;5074558;28;20172;-87
2022/01/21 06:58:40;;;;;;;1.90;1.30;;;1.50;72.50;;;;;;5056340;28;20179;-88
2022/01/21 07:01:08;;;;;;;3.60;1.20;;;1.40;72.50;;;;;;5064547;28;20234;-87
2022/01/21 07:03:34;;;;;;;2.70;1.70;;;1.50;73.00;;;;;;5094082;28;20206;-89
2022/01/21 07:06:00;;;;;;;6.70;1.43;;;1.60;73.20;;;;;;5076228;28;20631;-89
2022/01/21 07:08:27;;;;;;;3.53;1.30;;;1.60;73.60;;;;;;5094176;28;20656;-89
2022/01/21 07:10:53;;;;;;;4.20;1.40;;;1.50;73.40;;;;;;5076118;28;20184;-89
2022/01/21 07:13:19;;;;;;;3.60;1.20;;;1.60;74.00;;;;;;5075725;28;20180;-89
2022/01/21 07:15:45;;;;;;;2.63;1.00;;;1.50;72.20;;;;;;5076510;28;20173;-89
2022/01/21 07:18:11;;;;;;;1.23;1.00;;;1.50;72.00;;;;;;5094327;28;20600;-89
2022/01/21 07:20:37;;;;;;;2.63;1.20;;;1.40;72.10;;;;;;5076762;28;20203;-89
2022/01/21 07:23:03;;;;;;;1.23;1.10;;;1.50;72.80;;;;;;5079421;28;20643;-89
2022/01/21 07:25:29;;;;;;;1.10;1.10;;;1.60;72.20;;;;;;5086999;28;20213;-89
2022/01/21 07:27:55;;;;;;;1.60;0.87;;;1.60;72.10;;;;;;5077447;28;20256;-89
2022/01/21 07:30:20;;;;;;;1.17;0.87;;;1.60;72.30;;;;;;5077382;28;20556;-89
2022/01/21 07:32:46;;;;;;;2.17;1.23;;;1.60;72.50;;;;;;5059721;28;20185;-89
2022/01/21 07:35:14;;;;;;;1.70;1.20;;;1.70;72.60;;;;;;5059663;28;20186;-89
2022/01/21 07:37:40;;;;;;;1.37;1.20;;;1.70;73.40;;;;;;5059314;28;20184;-88
2022/01/21 07:40:06;;;;;;;1.77;1.03;;;1.70;74.00;;;;;;5077237;28;20178;-88
2022/01/21 07:42:32;;;;;;;2.20;1.00;;;1.70;75.00;;;;;;5059455;28;20230;-89
2022/01/21 07:44:58;;;;;;;2.57;1.20;;;1.80;73.50;;;;;;5077133;28;20183;-89
2022/01/21 07:47:24;;;;;;;2.20;1.00;;;1.80;72.90;;;;;;5077325;28;20255;-90
2022/01/21 07:49:50;;;;;;;3.70;1.40;;;1.80;72.60;;;;;;5077629;28;20180;-89
2022/01/21 07:52:17;;;;;;;1.37;1.00;;;1.80;72.90;;;;;;5062223;28;20178;-89
2022/01/21 07:54:43;;;;;;;2.67;1.20;;;1.70;72.50;;;;;;5085755;28;20173;-88
2022/01/21 07:57:10;;;;;;;6.33;1.40;;;1.70;72.80;;;;;;5096547;28;20173;-88
2022/01/21 07:59:36;;;;;;;2.23;1.30;;;1.70;73.30;;;;;;5060324;28;20177;-88
2022/01/21 08:02:03;;;;;;;2.77;1.03;;;1.60;72.80;;;;;;5064154;28;20188;-87
2022/01/21 08:04:29;;;;;;;1.30;1.20;;;1.60;74.10;;;;;;5078240;28;20176;-87
2022/01/21 08:06:55;;;;;;;3.80;0.93;;;1.60;73.80;;;;;;5087820;28;20184;-88
2022/01/21 08:09:24;;;;;;;1.80;1.40;;;1.70;73.10;;;;;;5079734;28;20216;-88
2022/01/21 08:11:54;;;;;;;1.90;1.17;;;1.70;74.80;;;;;;5077026;28;20203;-87
2022/01/21 08:14:20;;;;;;;1.10;1.00;;;1.70;78.50;;;;;;5077098;28;20288;-88
2022/01/21 08:16:46;;;;;;;4.80;1.23;;;1.90;73.60;;;;;;5079084;28;20567;-88
2022/01/21 08:19:13;;;;;;;3.00;1.30;;;1.90;71.90;;;;;;5059587;28;20188;-87
2022/01/21 08:21:39;;;;;;;2.03;0.93;;;1.80;71.90;;;;;;5077751;28;20178;-87
2022/01/21 08:24:06;;;;;;;3.57;1.33;;;1.70;71.10;;;;;;5077586;28;20227;-86
2022/01/21 08:26:33;;;;;;;1.30;1.20;;;1.70;72.20;;;;;;5077790;28;20173;-87
2022/01/21 08:28:59;;;;;;;5.13;1.50;;;1.80;72.10;;;;;;5077110;28;20268;-87
2022/01/21 08:31:25;;;;;;;1.53;1.10;;;1.80;71.50;;;;;;5075261;28;20604;-87
2022/01/21 08:33:52;;;;;;;2.73;1.27;;;1.80;71.70;;;;;;5089302;28;20182;-87
2022/01/21 08:36:20;;;;;;;4.53;4.10;;;1.90;71.20;;;;;;5057753;28;20209;-87
2022/01/21 08:38:46;;;;;;;3.00;1.30;;;1.80;71.40;;;;;;5075583;28;20174;-86
2022/01/21 08:41:11;;;;;;;1.20;1.10;;;1.90;71.20;;;;;;5075639;28;20525;-87
2022/01/21 08:43:37;;;;;;;3.13;1.20;;;1.90;70.30;;;;;;5076101;28;20306;-87
2022/01/21 08:46:04;;;;;;;1.70;1.27;;;1.90;69.70;;;;;;5057732;28;20177;-87
2022/01/21 08:48:29;;;;;;;1.43;1.10;;;1.90;70.10;;;;;;5075852;28;20300;-87
2022/01/21 08:51:01;;;;;;;5.90;1.67;;;1.90;69.50;;;;;;5076315;28;20257;-86
2022/01/21 08:53:36;;;;;;;2.77;1.63;;;1.90;70.70;;;;;;5076297;28;20327;-87
2022/01/21 08:56:04;;;;;;;12.13;7.50;;;2.00;69.70;;;;;;5058364;28;20202;-86
2022/01/21 08:58:30;;;;;;;1.70;1.10;;;2.00;69.30;;;;;;5076090;28;20535;-87
2022/01/21 09:00:56;;;;;;;1.17;0.77;;;2.00;70.30;;;;;;5057822;28;20176;-86
2022/01/21 09:03:23;;;;;;;1.30;1.20;;;2.00;68.70;;;;;;5075860;28;20239;-87
2022/01/21 09:05:50;;;;;;;1.27;1.13;;;2.00;69.10;;;;;;5057883;28;20188;-86
2022/01/21 09:08:24;;;;;;;2.10;0.90;;;2.00;68.40;;;;;;5076470;28;20255;-88
2022/01/21 09:10:50;;;;;;;1.10;1.10;;;2.00;68.80;;;;;;5057793;28;20633;-87
2022/01/21 09:13:16;;;;;;;1.07;1.07;;;2.00;67.50;;;;;;5057166;28;20656;-87
2022/01/21 09:15:42;;;;;;;1.83;1.00;;;2.00;67.80;;;;;;5075392;28;20170;-87
2022/01/21 09:18:09;;;;;;;1.83;1.00;;;2.00;68.30;;;;;;5075434;28;20640;-86
2022/01/21 09:20:36;;;;;;;1.63;1.53;;;2.10;67.90;;;;;;5057326;28;20168;-87
2022/01/21 09:23:02;;;;;;;2.53;1.27;;;2.00;67.70;;;;;;5075592;28;20174;-87
2022/01/21 09:25:29;;;;;;;1.20;1.10;;;2.00;67.70;;;;;;5058662;28;20246;-87
2022/01/21 09:27:55;;;;;;;0.93;0.93;;;2.10;67.50;;;;;;5079324;28;20206;-87
2022/01/21 09:30:21;;;;;;;3.63;1.30;;;2.10;67.10;;;;;;5077998;28;20192;-87
2022/01/21 09:32:47;;;;;;;2.00;1.10;;;2.20;67.40;;;;;;5078113;28;20190;-87
2022/01/21 09:35:13;;;;;;;2.30;1.10;;;2.20;66.70;;;;;;5078383;28;20184;-87
2022/01/21 09:37:39;;;;;;;1.83;1.23;;;2.20;67.10;;;;;;5085613;28;20508;-86
2022/01/21 09:40:06;;;;;;;2.20;1.10;;;2.20;67.30;;;;;;5066649;28;20674;-87
2022/01/21 09:42:34;;;;;;;0.97;0.80;;;2.20;66.70;;;;;;5066395;28;20556;-87
2022/01/21 09:45:00;;;;;;;5.03;1.33;;;2.30;67.30;;;;;;5061856;28;20212;-87
2022/01/21 09:47:31;;;;;;;2.57;0.93;;;2.20;67.20;;;;;;5066983;28;20178;-88
2022/01/21 09:49:57;;;;;;;3.20;1.20;;;2.30;67.90;;;;;;5078164;28;20221;-87
2022/01/21 09:52:24;;;;;;;1.07;1.07;;;2.30;66.40;;;;;;5071853;28;20237;-86
2022/01/21 09:54:53;;;;;;;3.37;0.90;;;2.30;66.50;;;;;;5048079;28;20174;-87
2022/01/21 09:57:22;;;;;;;6.27;1.30;;;2.30;66.20;;;;;;5046502;28;20194;-87
2022/01/21 09:59:50;;;;;;;1.43;1.00;;;2.20;65.80;;;;;;5040748;28;20540;-87
2022/01/21 10:02:19;;;;;;;1.20;1.10;;;2.30;66.30;;;;;;5058875;28;20217;-87
2022/01/21 10:04:49;;;;;;;1.37;1.27;;;2.40;65.00;;;;;;5038514;28;20179;-87
2022/01/21 10:07:18;;;;;;;1.00;0.90;;;2.40;64.70;;;;;;5038009;28;20193;-87
2022/01/21 10:09:46;;;;;;;1.63;1.47;;;2.30;64.80;;;;;;5056932;28;20175;-87
2022/01/21 10:12:13;;;;;;;1.40;1.00;;;2.40;65.10;;;;;;5040529;28;20179;-86
2022/01/21 10:14:40;;;;;;;1.23;1.10;;;2.50;64.50;;;;;;5054423;28;20182;-87
2022/01/21 10:17:08;;;;;;;4.50;1.00;;;2.50;64.30;;;;;;5054034;28;20169;-89
2022/01/21 10:19:45;;;;;;;3.70;1.10;;;2.50;64.30;;;;;;5037016;28;20179;-87
2022/01/21 10:22:16;;;;;;;1.37;1.10;;;2.50;64.60;;;;;;5036427;28;20669;-87
2022/01/21 10:24:57;;;;;;;1.37;0.97;;;2.60;63.60;;;;;;5054184;28;20236;-88
2022/01/21 10:27:29;;;;;;;1.07;1.07;;;2.60;63.90;;;;;;5035879;28;20174;-87
2022/01/21 10:29:55;;;;;;;1.20;1.20;;;2.50;63.00;;;;;;5036635;28;20183;-87
2022/01/21 10:32:33;;;;;;;1.90;1.00;;;2.50;62.80;;;;;;5034683;28;20179;-87
2022/01/21 10:35:00;;;;;;;1.13;1.03;;;2.50;62.90;;;;;;5016441;28;20188;-86
2022/01/21 10:37:35;;;;;;;1.30;1.10;;;2.50;62.90;;;;;;5016171;28;20706;-88
2022/01/21 10:40:01;;;;;;;2.10;1.13;;;2.60;63.20;;;;;;5041439;28;20190;-87
2022/01/21 10:42:28;;;;;;;3.57;1.20;;;2.60;64.10;;;;;;5019311;28;20183;-88
2022/01/21 10:44:55;;;;;;;1.67;1.23;;;2.70;63.90;;;;;;5019865;28;20187;-87
2022/01/21 10:47:27;;;;;;;2.27;1.23;;;2.70;63.90;;;;;;5015611;28;20225;-88
2022/01/21 10:50:03;;;;;;;0.87;0.87;;;2.70;63.40;;;;;;5033794;28;20157;-87
2022/01/21 10:52:51;;;;;;;1.10;1.00;;;2.70;62.50;;;;;;5037537;28;20222;-87
2022/01/21 10:55:32;;;;;;;1.20;1.13;;;2.70;62.50;;;;;;5034003;28;20572;-87
2022/01/21 10:58:09;;;;;;;3.47;1.37;;;2.80;61.30;;;;;;5053308;28;20175;-86
2022/01/21 11:01:00;;;;;;;0.93;0.93;;;2.70;60.80;;;;;;5035260;28;20177;-87
2022/01/21 11:03:31;;;;;;;1.23;1.13;;;2.70;60.00;;;;;;5053401;28;20567;-87
2022/01/21 11:06:21;;;;;;;1.53;1.13;;;2.80;60.70;;;;;;5061116;28;20182;-86
2022/01/21 11:08:47;;;;;;;1.27;1.17;;;2.80;59.90;;;;;;5072886;28;20269;-87
2022/01/21 11:11:12;;;;;;;1.90;1.40;;;2.80;60.20;;;;;;5073653;28;20628;-87
2022/01/21 11:13:42;;;;;;;1.03;1.03;;;2.80;60.20;;;;;;5073289;28;20186;-87
2022/01/21 11:16:23;;;;;;;1.20;1.20;;;2.90;60.00;;;;;;5073171;28;20224;-87
2022/01/21 11:19:11;;;;;;;1.30;1.27;;;2.80;60.80;;;;;;5055632;28;20182;-87
2022/01/21 11:21:40;;;;;;;3.53;1.30;;;2.90;59.60;;;;;;5073667;28;20166;-87
2022/01/21 11:24:08;;;;;;;0.97;0.97;;;2.90;59.30;;;;;;5076798;28;20186;-87
2022/01/21 11:26:34;;;;;;;1.70;1.20;;;3.00;59.10;;;;;;5073169;28;20269;-86
2022/01/21 11:29:01;;;;;;;3.33;1.30;;;3.00;59.00;;;;;;5055209;28;20206;-88
2022/01/21 11:31:29;;;;;;;3.13;1.30;;;2.90;58.70;;;;;;5073759;28;20645;-86
2022/01/21 11:33:54;;;;;;;1.10;1.10;;;3.00;58.10;;;;;;5055442;28;20193;-87
2022/01/21 11:36:20;;;;;;;1.63;1.10;;;2.90;57.10;;;;;;5055198;28;20185;-87
2022/01/21 11:38:48;;;;;;;0.97;0.97;;;2.90;56.10;;;;;;5055454;28;20263;-86
2022/01/21 11:41:15;;;;;;;1.37;1.10;;;2.80;56.30;;;;;;5063898;28;20187;-87
2022/01/21 11:43:50;;;;;;;1.30;1.20;;;2.90;56.80;;;;;;5091292;28;20170;-87
2022/01/21 11:46:39;;;;;;;7.90;1.10;;;3.00;57.00;;;;;;5079892;28;20241;-86
2022/01/21 11:49:17;;;;;;;1.23;1.13;;;3.10;55.40;;;;;;5073474;28;20197;-87
2022/01/21 11:51:43;;;;;;;3.00;2.27;;;3.10;54.70;;;;;;5055312;28;20201;-86
2022/01/21 11:54:13;;;;;;;1.57;1.40;;;3.10;56.00;;;;;;5072895;28;20721;-86
2022/01/21 11:57:06;;;;;;;3.57;1.20;;;3.10;56.70;;;;;;5074151;28;20177;-86
2022/01/21 11:59:34;;;;;;;1.80;1.20;;;3.10;55.60;;;;;;5055865;28;20607;-87
2022/01/21 12:02:15;;;;;;;2.07;1.13;;;3.10;56.70;;;;;;5074241;28;20265;-87
2022/01/21 12:04:50;;;;;;;1.27;1.07;;;3.10;56.60;;;;;;5074549;28;20708;-87
2022/01/21 12:07:35;;;;;;;1.07;1.00;;;3.20;56.40;;;;;;5058258;28;20174;-87
2022/01/21 12:10:03;;;;;;;2.10;1.00;;;3.20;57.20;;;;;;5059034;28;20194;-87
2022/01/21 12:13:05;;;;;;;3.33;1.30;;;3.20;57.00;;;;;;5059179;28;20265;-87
2022/01/21 12:18:53;;;;;;;1.43;1.00;;;3.40;55.20;;;;;;5081368;28;20298;-86
2022/01/21 12:21:35;;;;;;;2.67;1.67;;;3.30;55.80;;;;;;5059386;28;20178;-86
2022/01/21 12:24:03;;;;;;;1.10;1.10;;;3.40;56.10;;;;;;5077718;28;20254;-88
2022/01/21 12:26:30;;;;;;;1.00;1.00;;;3.40;56.50;;;;;;5059800;28;20174;-88
2022/01/21 12:29:14;;;;;;;1.00;0.90;;;3.40;56.70;;;;;;5058701;28;20213;-87
2022/01/21 12:32:02;;;;;;;1.97;0.97;;;3.40;56.20;;;;;;5063919;28;20184;-88
2022/01/21 12:34:49;;;;;;;0.90;0.90;;;3.30;56.30;;;;;;5071096;28;20229;-88
2022/01/21 12:37:17;;;;;;;1.23;1.20;;;3.20;56.10;;;;;;5064259;28;20201;-88
2022/01/21 12:39:48;;;;;;;1.10;1.00;;;3.20;56.60;;;;;;5064547;28;20191;-87
2022/01/21 12:42:20;;;;;;;1.23;1.10;;;3.30;56.40;;;;;;5062979;28;20179;-88
2022/01/21 12:44:47;;;;;;;2.37;1.13;;;3.30;56.80;;;;;;5081454;28;20630;-87
2022/01/21 12:47:43;;;;;;;1.43;1.00;;;3.30;57.00;;;;;;5063581;28;20154;-87
2022/01/21 12:50:40;;;;;;;18.03;5.00;;;3.40;57.30;;;;;;5080538;28;20225;-87
2022/01/21 12:53:25;;;;;;;3.33;1.70;;;3.40;61.00;;;;;;5064554;28;20264;-88
2022/01/21 12:56:03;;;;;;;1.80;1.33;;;3.50;60.50;;;;;;5064921;28;20245;-87
2022/01/21 12:58:42;;;;;;;0.80;0.80;;;3.50;57.50;;;;;;5064783;28;20179;-87
2022/01/21 13:01:12;;;;;;;1.07;0.93;;;3.50;57.10;;;;;;5083297;28;20162;-88
2022/01/21 13:03:58;;;;;;;1.30;1.20;;;3.50;57.00;;;;;;5064517;28;20270;-87
2022/01/21 13:07:01;;;;;;;2.03;1.20;;;3.50;57.00;;;;;;5081281;28;20258;-88
2022/01/21 13:09:55;;;;;;;2.83;1.00;;;3.30;57.60;;;;;;5066417;28;20221;-88
2022/01/21 13:12:45;;;;;;;1.07;1.00;;;3.30;57.10;;;;;;5065353;28;20192;-87
2022/01/21 13:15:14;;;;;;;2.33;0.90;;;3.40;57.70;;;;;;5086236;28;20218;-88
2022/01/21 13:17:40;;;;;;;1.37;0.77;;;3.40;57.30;;;;;;5131017;22;20220;-87
2022/01/21 13:20:09;;;;;;;1.20;1.20;;;3.40;57.20;;;;;;5070040;28;20207;-88
2022/01/21 13:23:02;;;;;;;0.90;0.90;;;3.30;57.60;;;;;;5065497;28;20172;-88
2022/01/21 13:25:33;;;;;;;2.00;1.27;;;3.30;57.70;;;;;;5042500;28;20231;-87
2022/01/21 13:28:02;;;;;;;0.80;0.80;;;3.40;58.00;;;;;;5045067;28;20247;-87
2022/01/21 13:30:35;;;;;;;1.03;1.00;;;3.50;58.20;;;;;;5046163;28;20216;-88
2022/01/21 13:33:08;;;;;;;0.70;0.70;;;3.40;58.20;;;;;;5040934;28;20179;-88
2022/01/21 13:35:38;;;;;;;1.03;1.03;;;3.40;57.90;;;;;;5038635;28;20585;-88
2022/01/21 13:38:12;;;;;;;1.00;1.00;;;3.30;58.40;;;;;;5050526;28;20620;-87
2022/01/21 13:40:46;;;;;;;1.67;0.80;;;3.20;58.70;;;;;;5104372;22;20252;-87
2022/01/21 13:43:28;;;;;;;1.10;1.10;;;3.20;58.20;;;;;;5028886;28;20195;-87
2022/01/21 13:46:03;;;;;;;1.03;1.00;;;3.20;58.10;;;;;;5047565;28;20175;-87
2022/01/21 13:48:33;;;;;;;1.13;1.13;;;3.20;58.50;;;;;;5045788;28;20218;-87
2022/01/21 13:51:09;;;;;;;1.20;1.20;;;3.20;58.50;;;;;;5066257;28;20196;-88
2022/01/21 13:53:43;;;;;;;1.73;1.00;;;3.20;58.60;;;;;;5030048;28;20168;-87
2022/01/21 13:56:15;;;;;;;1.27;1.17;;;3.30;59.10;;;;;;5028323;28;20190;-88
2022/01/21 13:58:45;;;;;;;2.07;1.13;;;3.30;58.70;;;;;;5043514;28;20186;-87
2022/01/21 14:01:14;;;;;;;0.83;0.83;;;3.40;63.40;;;;;;5044419;28;20176;-87